createdAt,value
2023-05-06T00:00:16.293Z,12.40
2023-05-06T00:02:44.521Z,12.40
2023-05-06T00:05:12.959Z,12.40
2023-05-06T00:07:42.904Z,12.30
2023-05-06T00:10:11.564Z,12.30
2023-05-06T00:12:39.815Z,12.20
2023-05-06T00:15:09.618Z,12.20
2023-05-06T00:17:37.936Z,12.20
2023-05-06T00:20:07.447Z,12.20
2023-05-06T00:22:35.781Z,12.10
2023-05-06T00:25:05.665Z,12.10
2023-05-06T00:27:34.356Z,12.10
2023-05-06T00:30:02.709Z,12.00
2023-05-06T00:32:30.953Z,12.00
2023-05-06T00:34:59.129Z,12.00
2023-05-06T00:37:27.481Z,11.90
2023-05-06T00:39:55.649Z,11.90
2023-05-06T00:42:25.214Z,11.90
2023-05-06T00:44:53.673Z,11.90
2023-05-06T00:47:23.427Z,11.90
2023-05-06T00:49:51.927Z,11.80
2023-05-06T00:52:21.068Z,11.80
2023-05-06T00:54:49.786Z,11.80
2023-05-06T00:57:18.283Z,11.80
2023-05-06T00:59:47.980Z,11.80
2023-05-06T01:05:22.332Z,11.70
2023-05-06T01:08:00.238Z,11.70
2023-05-06T01:10:34.937Z,11.70
2023-05-06T01:13:09.550Z,11.70
2023-05-06T01:15:44.261Z,11.70
2023-05-06T01:18:17.123Z,11.60
2023-05-06T01:20:49.753Z,11.70
2023-05-06T01:23:19.730Z,11.70
2023-05-06T01:25:48.004Z,11.70
2023-05-06T01:28:16.336Z,11.60
2023-05-06T01:30:53.877Z,11.60
2023-05-06T01:33:33.417Z,11.60
2023-05-06T01:36:09.855Z,11.60
2023-05-06T01:38:47.191Z,11.60
2023-05-06T01:41:17.683Z,11.50
2023-05-06T01:43:48.536Z,11.50
2023-05-06T01:46:19.778Z,11.50
2023-05-06T01:48:51.091Z,11.50
2023-05-06T01:51:19.428Z,11.50
2023-05-06T01:53:48.976Z,11.40
2023-05-06T01:56:17.829Z,11.40
2023-05-06T01:58:46.174Z,11.30
2023-05-06T02:01:14.392Z,11.30
2023-05-06T02:03:42.691Z,11.30
2023-05-06T02:06:11.193Z,11.20
2023-05-06T02:08:40.708Z,11.20
2023-05-06T02:11:10.289Z,11.20
2023-05-06T02:13:38.707Z,11.20
2023-05-06T02:16:07.206Z,11.20
2023-05-06T02:18:35.857Z,11.20
2023-05-06T02:21:04.295Z,11.10
2023-05-06T02:23:32.497Z,11.10
2023-05-06T02:26:00.667Z,11.10
2023-05-06T02:28:30.351Z,11.10
2023-05-06T02:30:58.800Z,11.00
2023-05-06T02:33:27.224Z,11.10
2023-05-06T02:35:55.612Z,11.00
2023-05-06T02:38:23.770Z,11.00
2023-05-06T02:40:52.123Z,11.00
2023-05-06T02:43:20.581Z,10.90
2023-05-06T02:45:50.164Z,10.90
2023-05-06T02:48:18.521Z,10.90
2023-05-06T02:50:47.097Z,10.80
2023-05-06T02:53:15.381Z,10.80
2023-05-06T02:55:43.529Z,10.80
2023-05-06T02:58:11.832Z,10.80
2023-05-06T03:00:40.031Z,10.70
2023-05-06T03:03:11.194Z,10.70
2023-05-06T03:05:39.572Z,10.70
2023-05-06T03:08:07.895Z,10.60
2023-05-06T03:10:36.261Z,10.60
2023-05-06T03:13:04.544Z,10.50
2023-05-06T03:15:33.163Z,10.50
2023-05-06T03:18:01.469Z,10.50
2023-05-06T03:20:31.497Z,10.50
2023-05-06T03:22:59.742Z,10.40
2023-05-06T03:25:28.044Z,10.40
2023-05-06T03:27:56.312Z,10.40
2023-05-06T03:30:24.486Z,10.40
2023-05-06T03:32:52.784Z,10.40
2023-05-06T03:35:21.525Z,10.40
2023-05-06T03:37:51.088Z,10.40
2023-05-06T03:40:21.931Z,10.40
2023-05-06T03:42:51.399Z,10.30
2023-05-06T03:45:19.666Z,10.30
2023-05-06T03:47:48.350Z,10.30
2023-05-06T03:50:16.813Z,10.20
2023-05-06T03:52:45.153Z,10.30
2023-05-06T03:55:14.705Z,10.30
2023-05-06T03:57:43.027Z,10.30
2023-05-06T04:00:12.381Z,10.30
2023-05-06T04:02:42.576Z,10.30
2023-05-06T04:05:11.377Z,10.30
2023-05-06T04:07:39.671Z,10.20
2023-05-06T04:10:09.633Z,10.20
2023-05-06T04:12:39.212Z,10.20
2023-05-06T04:15:09.106Z,10.20
2023-05-06T04:17:37.697Z,10.20
2023-05-06T04:20:07.327Z,10.10
2023-05-06T04:22:35.487Z,10.20
2023-05-06T04:25:03.711Z,10.20
2023-05-06T04:27:32.200Z,10.20
2023-05-06T04:30:01.750Z,10.20
2023-05-06T04:32:30.021Z,10.20
2023-05-06T04:34:58.395Z,10.10
2023-05-06T04:37:28.446Z,10.20
2023-05-06T04:39:57.307Z,10.10
2023-05-06T04:42:25.719Z,10.10
2023-05-06T04:44:53.845Z,10.20
2023-05-06T04:47:23.379Z,10.20
2023-05-06T04:49:51.787Z,10.20
2023-05-06T04:52:20.105Z,10.20
2023-05-06T04:54:48.243Z,10.30
2023-05-06T04:57:16.607Z,10.30
2023-05-06T04:59:44.734Z,10.30
2023-05-06T05:02:12.990Z,10.40
2023-05-06T05:04:42.700Z,10.40
2023-05-06T05:07:11.247Z,10.40
2023-05-06T05:09:39.653Z,10.50
2023-05-06T05:12:08.338Z,10.60
2023-05-06T05:14:36.572Z,10.70
2023-05-06T05:17:04.859Z,10.70
2023-05-06T05:19:33.172Z,10.80
2023-05-06T05:22:02.725Z,10.80
2023-05-06T05:24:30.962Z,10.90
2023-05-06T05:26:59.194Z,11.00
2023-05-06T05:29:27.369Z,11.00
2023-05-06T05:31:55.652Z,11.10
2023-05-06T05:34:23.960Z,11.30
2023-05-06T05:36:52.156Z,11.40
2023-05-06T05:39:21.645Z,11.50
2023-05-06T05:41:49.901Z,11.60
2023-05-06T05:44:18.118Z,11.80
2023-05-06T05:46:46.428Z,11.90
2023-05-06T05:49:14.899Z,12.20
2023-05-06T05:51:43.255Z,12.30
2023-05-06T05:54:11.399Z,12.50
2023-05-06T05:56:40.876Z,12.60
2023-05-06T05:59:09.177Z,12.70
2023-05-06T06:01:37.304Z,13.00
2023-05-06T06:04:06.019Z,13.20
2023-05-06T06:06:35.080Z,13.30
2023-05-06T06:09:03.368Z,13.50
2023-05-06T06:11:31.589Z,13.60
2023-05-06T06:14:01.160Z,13.60
2023-05-06T06:16:29.486Z,13.70
2023-05-06T06:18:57.900Z,13.90
2023-05-06T06:21:27.708Z,14.20
2023-05-06T06:23:55.899Z,14.40
2023-05-06T06:26:24.074Z,14.60
2023-05-06T06:28:52.338Z,14.80
2023-05-06T06:31:22.016Z,15.00
2023-05-06T06:33:50.234Z,15.10
2023-05-06T06:36:18.536Z,15.20
2023-05-06T06:38:46.799Z,15.40
2023-05-06T06:41:15.489Z,15.40
2023-05-06T06:43:43.799Z,15.50
2023-05-06T06:46:12.022Z,15.40
2023-05-06T06:48:41.638Z,15.60
2023-05-06T06:51:09.947Z,15.50
2023-05-06T06:53:38.279Z,15.50
2023-05-06T06:56:11.157Z,15.70
2023-05-06T06:58:39.352Z,15.90
2023-05-06T07:01:07.548Z,16.20
2023-05-06T07:03:36.013Z,16.10
2023-05-06T07:06:05.987Z,16.10
2023-05-06T07:08:34.135Z,16.00
2023-05-06T07:11:03.773Z,16.00
2023-05-06T07:13:32.261Z,16.20
2023-05-06T07:16:03.123Z,16.50
2023-05-06T07:18:31.519Z,16.80
2023-05-06T07:20:59.941Z,16.90
2023-05-06T07:23:31.227Z,16.80
2023-05-06T07:26:00.825Z,16.60
2023-05-06T07:28:29.051Z,16.90
2023-05-06T07:30:57.392Z,16.90
2023-05-06T07:33:26.044Z,16.70
2023-05-06T07:35:54.870Z,16.60
2023-05-06T07:38:23.379Z,16.50
2023-05-06T07:40:53.299Z,16.60
2023-05-06T07:43:22.990Z,16.60
2023-05-06T07:45:51.239Z,16.70
2023-05-06T07:48:20.478Z,16.60
2023-05-06T07:50:51.587Z,16.50
2023-05-06T07:53:19.811Z,16.50
2023-05-06T07:55:48.144Z,16.60
2023-05-06T07:58:17.657Z,16.70
2023-05-06T08:00:46.164Z,16.70
2023-05-06T08:03:14.731Z,16.70
2023-05-06T08:05:43.018Z,16.80
2023-05-06T08:08:11.465Z,17.00
2023-05-06T08:10:39.730Z,17.30
2023-05-06T08:13:07.923Z,17.50
2023-05-06T08:15:37.666Z,18.30
2023-05-06T08:18:21.068Z,18.50
2023-05-06T08:20:51.291Z,18.40
2023-05-06T08:23:19.752Z,18.50
2023-05-06T08:25:47.978Z,18.80
2023-05-06T08:28:16.338Z,19.00
2023-05-06T08:30:47.917Z,19.40
2023-05-06T08:33:16.062Z,19.50
2023-05-06T08:35:44.984Z,19.70
2023-05-06T08:38:13.408Z,20.10
2023-05-06T08:40:45.000Z,20.50
2023-05-06T08:43:15.474Z,21.20
2023-05-06T08:45:45.166Z,21.70
2023-05-06T08:48:13.652Z,20.80
2023-05-06T08:50:43.980Z,20.70
2023-05-06T08:53:13.660Z,20.80
2023-05-06T08:55:43.732Z,21.20
2023-05-06T08:58:15.808Z,21.70
2023-05-06T09:00:47.034Z,21.50
2023-05-06T09:03:15.266Z,22.40
2023-05-06T09:05:43.779Z,22.60
2023-05-06T09:08:12.491Z,22.40
2023-05-06T09:10:45.427Z,22.40
2023-05-06T09:13:15.032Z,22.40
2023-05-06T09:15:43.854Z,22.30
2023-05-06T09:18:13.968Z,22.20
2023-05-06T09:20:42.988Z,21.90
2023-05-06T09:23:12.401Z,21.70
2023-05-06T09:25:41.213Z,21.30
2023-05-06T09:28:10.941Z,21.00
2023-05-06T09:30:41.636Z,21.00
2023-05-06T09:33:10.576Z,21.40
2023-05-06T09:35:42.115Z,22.10
2023-05-06T09:38:11.083Z,22.30
2023-05-06T09:40:40.085Z,22.20
2023-05-06T09:43:08.993Z,22.10
2023-05-06T09:45:37.571Z,22.20
2023-05-06T09:48:07.663Z,22.00
2023-05-06T09:50:36.958Z,22.40
2023-05-06T09:53:07.637Z,22.70
2023-05-06T09:55:36.660Z,22.90
2023-05-06T09:58:05.410Z,22.90
2023-05-06T10:00:33.847Z,23.40
2023-05-06T10:03:03.109Z,23.60
2023-05-06T10:05:32.893Z,23.40
2023-05-06T10:08:04.338Z,23.30
2023-05-06T10:10:35.632Z,22.70
2023-05-06T10:13:04.650Z,22.40
2023-05-06T10:15:34.154Z,21.90
2023-05-06T10:18:04.301Z,21.80
2023-05-06T10:20:35.277Z,21.90
2023-05-06T10:23:11.011Z,22.00
2023-05-06T10:25:42.500Z,22.30
2023-05-06T10:28:20.739Z,22.20
2023-05-06T10:31:00.805Z,21.70
2023-05-06T10:33:29.659Z,21.50
2023-05-06T10:36:08.738Z,21.60
2023-05-06T10:38:42.473Z,21.80
2023-05-06T10:41:13.656Z,21.90
2023-05-06T10:43:43.856Z,21.90
2023-05-06T10:46:13.329Z,21.90
2023-05-06T10:49:18.399Z,21.90
2023-05-06T10:51:48.368Z,22.00
2023-05-06T10:54:25.148Z,22.20
2023-05-06T10:57:13.848Z,22.70
2023-05-06T10:59:47.793Z,22.70
2023-05-06T11:02:20.023Z,22.30
2023-05-06T11:04:53.072Z,21.80
2023-05-06T11:07:25.548Z,21.50
2023-05-06T11:09:58.866Z,21.30
2023-05-06T11:12:51.270Z,21.10
2023-05-06T11:15:27.408Z,21.20
2023-05-06T11:17:56.602Z,21.30
2023-05-06T11:20:26.524Z,21.30
2023-05-06T11:22:55.877Z,21.20
2023-05-06T11:25:43.602Z,21.10
2023-05-06T11:28:14.919Z,21.30
2023-05-06T11:30:44.470Z,21.40
2023-05-06T11:33:19.724Z,21.30
2023-05-06T11:35:48.937Z,21.30
2023-05-06T11:38:17.154Z,21.40
2023-05-06T11:40:45.452Z,21.60
2023-05-06T11:43:16.247Z,21.80
2023-05-06T11:45:45.759Z,22.00
2023-05-06T11:48:14.265Z,22.00
2023-05-06T11:50:47.339Z,22.10
2023-05-06T11:53:19.104Z,22.40
2023-05-06T11:55:48.056Z,22.50
2023-05-06T11:58:19.118Z,22.40
2023-05-06T12:00:51.308Z,22.40
2023-05-06T12:03:20.349Z,22.30
2023-05-06T12:05:49.541Z,22.00
2023-05-06T12:08:27.420Z,21.70
2023-05-06T12:10:59.277Z,21.70
2023-05-06T12:13:29.668Z,21.50
2023-05-06T12:15:59.900Z,21.30
2023-05-06T12:18:28.846Z,21.10
2023-05-06T12:20:57.810Z,21.00
2023-05-06T12:23:26.229Z,21.00
2023-05-06T12:26:04.345Z,20.90
2023-05-06T12:28:34.907Z,20.90
2023-05-06T12:31:18.852Z,20.80
2023-05-06T12:33:49.079Z,20.70
2023-05-06T12:36:19.935Z,20.60
2023-05-06T12:38:55.079Z,20.50
2023-05-06T12:41:24.955Z,20.40
2023-05-06T12:43:54.445Z,20.40
2023-05-06T12:46:23.213Z,20.40
2023-05-06T12:49:01.884Z,20.40
2023-05-06T12:51:32.378Z,20.50
2023-05-06T12:54:00.559Z,20.70
2023-05-06T12:56:28.782Z,20.70
2023-05-06T12:58:59.832Z,20.70
2023-05-06T13:01:28.147Z,20.70
2023-05-06T13:03:58.432Z,20.70
2023-05-06T13:06:26.626Z,20.70
2023-05-06T13:08:54.760Z,20.80
2023-05-06T13:11:27.256Z,21.00
2023-05-06T13:13:55.392Z,21.20
2023-05-06T13:16:25.320Z,21.20
2023-05-06T13:18:53.653Z,21.20
2023-05-06T13:21:21.798Z,21.20
2023-05-06T13:23:50.428Z,21.20
2023-05-06T13:26:18.739Z,21.10
2023-05-06T13:28:47.465Z,21.00
2023-05-06T13:31:15.692Z,21.00
2023-05-06T13:33:45.466Z,20.80
2023-05-06T13:36:13.602Z,20.60
2023-05-06T13:38:41.758Z,20.60
2023-05-06T13:41:10.241Z,20.50
2023-05-06T13:43:38.539Z,20.40
2023-05-06T13:46:06.817Z,20.40
2023-05-06T13:48:35.093Z,20.30
2023-05-06T13:51:05.246Z,20.20
2023-05-06T13:53:33.447Z,20.20
2023-05-06T13:56:01.642Z,20.20
2023-05-06T13:58:29.815Z,20.30
2023-05-06T14:00:58.002Z,20.40
2023-05-06T14:03:26.494Z,20.50
2023-05-06T14:05:54.660Z,20.60
2023-05-06T14:08:24.285Z,20.60
2023-05-06T14:10:52.771Z,20.60
2023-05-06T14:13:21.106Z,20.60
2023-05-06T14:15:49.394Z,20.40
2023-05-06T14:18:18.146Z,20.40
2023-05-06T14:20:46.266Z,20.40
2023-05-06T14:23:14.385Z,20.30
2023-05-06T14:25:44.186Z,20.20
2023-05-06T14:28:12.986Z,20.20
2023-05-06T14:30:41.141Z,20.20
2023-05-06T14:33:10.063Z,20.30
2023-05-06T14:35:41.853Z,20.40
2023-05-06T14:38:10.621Z,20.60
2023-05-06T14:40:39.014Z,20.70
2023-05-06T14:43:09.094Z,20.70
2023-05-06T14:45:37.692Z,20.70
2023-05-06T14:48:06.743Z,20.70
2023-05-06T14:50:35.244Z,20.60
2023-05-06T14:53:04.789Z,20.50
2023-05-06T14:55:33.045Z,20.40
2023-05-06T14:58:01.125Z,20.30
2023-05-06T15:00:30.890Z,20.30
2023-05-06T15:02:59.484Z,20.20
2023-05-06T15:05:27.710Z,20.20
2023-05-06T15:07:56.059Z,20.20
2023-05-06T15:10:24.197Z,20.10
2023-05-06T15:12:52.484Z,20.00
2023-05-06T15:15:21.607Z,20.00
2023-05-06T15:17:52.380Z,19.80
2023-05-06T15:20:21.024Z,19.70
2023-05-06T15:26:31.988Z,19.60
2023-05-06T15:29:20.095Z,19.50
2023-05-06T15:31:48.689Z,19.40
2023-05-06T15:34:20.196Z,19.40
2023-05-06T15:36:52.483Z,19.40
2023-05-06T15:39:20.987Z,19.40
2023-05-06T15:41:49.412Z,19.40
2023-05-06T15:44:20.731Z,19.40
2023-05-06T15:46:49.350Z,19.50
2023-05-06T15:49:47.302Z,19.50
2023-05-06T15:52:07.161Z,19.50
2023-05-06T15:54:37.573Z,19.50
2023-05-06T15:57:07.035Z,19.40
2023-05-06T15:59:35.786Z,19.30
2023-05-06T16:04:36.658Z,19.20
2023-05-06T16:07:05.405Z,19.10
2023-05-06T16:09:33.607Z,19.10
2023-05-06T16:12:01.928Z,19.00
2023-05-06T16:14:30.269Z,18.90
2023-05-06T16:16:59.037Z,18.90
2023-05-06T16:19:27.705Z,18.90
2023-05-06T16:21:57.433Z,18.90
2023-05-06T16:24:25.600Z,18.90
2023-05-06T16:26:55.998Z,19.00
2023-05-06T16:29:24.938Z,19.00
2023-05-06T16:31:53.152Z,19.00
2023-05-06T16:34:21.461Z,19.00
2023-05-06T16:36:50.784Z,19.10
2023-05-06T16:39:20.356Z,19.10
2023-05-06T16:41:48.502Z,19.10
2023-05-06T16:44:16.639Z,19.20
2023-05-06T16:46:44.863Z,19.20
2023-05-06T16:49:13.030Z,19.20
2023-05-06T16:51:41.350Z,19.20
2023-05-06T16:54:09.583Z,19.10
2023-05-06T16:56:50.668Z,19.10
2023-05-06T16:59:21.940Z,19.10
2023-05-06T17:01:50.795Z,19.10
2023-05-06T17:04:18.932Z,19.10
2023-05-06T17:06:47.441Z,19.00
2023-05-06T17:09:16.353Z,19.00
2023-05-06T17:11:45.858Z,19.00
2023-05-06T17:14:14.623Z,19.00
2023-05-06T17:16:43.365Z,19.00
2023-05-06T17:19:12.049Z,19.00
2023-05-06T17:21:40.440Z,19.00
2023-05-06T17:24:08.745Z,19.10
2023-05-06T17:26:37.301Z,19.20
2023-05-06T17:29:07.326Z,19.20
2023-05-06T17:31:35.466Z,19.30
2023-05-06T17:34:03.864Z,19.30
2023-05-06T17:36:32.655Z,19.30
2023-05-06T17:39:04.707Z,19.30
2023-05-06T17:41:33.904Z,19.30
2023-05-06T17:44:02.220Z,19.40
2023-05-06T17:46:32.303Z,19.30
2023-05-06T17:49:00.862Z,19.20
2023-05-06T17:51:29.010Z,19.20
2023-05-06T17:53:58.380Z,19.10
2023-05-06T17:56:27.378Z,19.10
2023-05-06T17:58:56.591Z,19.00
2023-05-06T18:01:24.778Z,19.00
2023-05-06T18:03:55.630Z,19.00
2023-05-06T18:06:23.858Z,19.00
2023-05-06T18:08:52.011Z,19.00
2023-05-06T18:11:20.963Z,18.90
2023-05-06T18:13:49.145Z,18.90
2023-05-06T18:16:17.322Z,18.80
2023-05-06T18:18:45.764Z,18.70
2023-05-06T18:21:15.563Z,18.60
2023-05-06T18:23:43.744Z,18.60
2023-05-06T18:26:12.289Z,18.60
2023-05-06T18:28:41.716Z,18.50
2023-05-06T18:31:10.050Z,18.50
2023-05-06T18:33:39.014Z,18.50
2023-05-06T18:36:07.885Z,18.40
2023-05-06T18:38:37.442Z,18.40
2023-05-06T18:41:07.229Z,18.40
2023-05-06T18:43:35.507Z,18.40
2023-05-06T18:46:05.403Z,18.30
2023-05-06T18:48:34.060Z,18.30
2023-05-06T18:51:12.650Z,18.30
2023-05-06T18:53:43.003Z,18.20
2023-05-06T18:56:12.043Z,18.20
2023-05-06T18:58:41.495Z,18.10
2023-05-06T19:01:11.785Z,18.00
2023-05-06T19:03:40.430Z,18.00
2023-05-06T19:06:09.257Z,17.90
2023-05-06T19:08:38.855Z,17.90
2023-05-06T19:11:15.577Z,17.90
2023-05-06T19:13:45.171Z,17.80
2023-05-06T19:16:13.629Z,17.80
2023-05-06T19:18:41.934Z,17.70
2023-05-06T19:21:11.053Z,17.70
2023-05-06T19:23:39.653Z,17.70
2023-05-06T19:26:11.502Z,17.70
2023-05-06T19:28:40.600Z,17.60
2023-05-06T19:31:09.577Z,17.60
2023-05-06T19:33:38.174Z,17.60
2023-05-06T19:36:07.603Z,17.50
2023-05-06T19:38:36.112Z,17.50
2023-05-06T19:41:04.740Z,17.40
2023-05-06T19:43:34.613Z,17.40
2023-05-06T19:46:02.786Z,17.40
2023-05-06T19:48:31.033Z,17.40
2023-05-06T19:50:59.462Z,17.30
2023-05-06T19:53:27.686Z,17.20
2023-05-06T19:55:58.095Z,17.00
2023-05-06T19:58:26.498Z,16.90
2023-05-06T20:00:56.044Z,16.80
2023-05-06T20:03:24.343Z,16.80
2023-05-06T20:05:52.785Z,16.70
2023-05-06T20:08:20.936Z,16.70
2023-05-06T20:10:49.641Z,16.60
2023-05-06T20:13:18.628Z,16.60
2023-05-06T20:15:47.521Z,16.50
2023-05-06T20:18:17.311Z,16.50
2023-05-06T20:20:47.235Z,16.40
2023-05-06T20:23:15.440Z,16.30
2023-05-06T20:25:43.689Z,16.30
2023-05-06T20:28:12.023Z,16.30
2023-05-06T20:30:40.202Z,16.20
2023-05-06T20:33:08.572Z,16.30
2023-05-06T20:35:40.472Z,16.30
2023-05-06T20:38:09.396Z,16.30
2023-05-06T20:40:37.929Z,16.40
2023-05-06T20:43:06.095Z,16.40
2023-05-06T20:45:34.287Z,16.30
2023-05-06T20:48:02.554Z,16.40
2023-05-06T20:50:31.370Z,16.30
2023-05-06T20:53:02.451Z,16.30
2023-05-06T20:55:30.877Z,16.20
2023-05-06T20:57:59.017Z,16.10
2023-05-06T21:00:27.541Z,16.10
2023-05-06T21:02:56.044Z,16.00
2023-05-06T21:05:24.754Z,15.90
2023-05-06T21:07:53.155Z,15.90
2023-05-06T21:10:22.876Z,15.90
2023-05-06T21:12:51.671Z,15.90
2023-05-06T21:15:20.062Z,15.90
2023-05-06T21:17:48.442Z,15.80
2023-05-06T21:20:17.055Z,15.80
2023-05-06T21:22:45.290Z,15.80
2023-05-06T21:25:14.331Z,15.80
2023-05-06T21:27:43.866Z,15.70
2023-05-06T21:30:12.801Z,15.70
2023-05-06T21:32:41.269Z,15.70
2023-05-06T21:35:10.176Z,15.80
2023-05-06T21:37:41.671Z,15.70
2023-05-06T21:40:11.237Z,15.70
2023-05-06T21:42:39.537Z,15.60
2023-05-06T21:45:11.452Z,15.60
2023-05-06T21:47:39.942Z,15.50
2023-05-06T21:50:10.619Z,15.40
2023-05-06T21:52:38.997Z,15.40
2023-05-06T21:55:08.617Z,15.30
2023-05-06T21:57:37.204Z,15.20
2023-05-06T22:00:12.289Z,15.20
2023-05-06T22:02:42.402Z,15.20
2023-05-06T22:05:11.435Z,15.30
2023-05-06T22:07:39.766Z,15.30
2023-05-06T22:10:09.136Z,15.40
2023-05-06T22:12:37.371Z,15.40
2023-05-06T22:15:07.245Z,15.40
2023-05-06T22:17:36.588Z,15.40
2023-05-06T22:20:11.175Z,15.50
2023-05-06T22:22:39.549Z,15.60
2023-05-06T22:25:09.004Z,15.60
2023-05-06T22:27:37.487Z,15.70
2023-05-06T22:30:08.117Z,15.70
2023-05-06T22:32:36.364Z,15.60
2023-05-06T22:35:06.946Z,15.60
2023-05-06T22:37:35.078Z,15.60
2023-05-06T22:40:03.276Z,15.50
2023-05-06T22:42:31.816Z,15.50
2023-05-06T22:44:59.882Z,15.50
2023-05-06T22:47:28.027Z,15.50
2023-05-06T22:49:56.469Z,15.50
2023-05-06T22:52:26.007Z,15.50
2023-05-06T22:54:54.865Z,15.50
2023-05-06T22:57:25.554Z,15.50
2023-05-06T22:59:53.785Z,15.50
2023-05-06T23:02:21.946Z,15.50
2023-05-06T23:04:50.307Z,15.50
2023-05-06T23:07:18.489Z,15.50
2023-05-06T23:09:47.993Z,15.50
2023-05-06T23:12:16.405Z,15.50
2023-05-06T23:14:44.491Z,15.40
2023-05-06T23:17:12.726Z,15.40
2023-05-06T23:19:41.314Z,15.40
2023-05-06T23:22:09.455Z,15.40
2023-05-06T23:24:37.655Z,15.50
2023-05-06T23:27:07.480Z,15.50
2023-05-06T23:29:35.718Z,15.50
2023-05-06T23:32:04.388Z,15.50
2023-05-06T23:34:32.971Z,15.50
2023-05-06T23:37:01.466Z,15.50
2023-05-06T23:39:29.713Z,15.50
2023-05-06T23:42:00.562Z,15.50
2023-05-06T23:44:30.117Z,15.50
2023-05-06T23:46:58.282Z,15.50
2023-05-06T23:49:26.767Z,15.50
2023-05-06T23:51:54.875Z,15.50
2023-05-06T23:54:23.029Z,15.50
2023-05-06T23:56:51.362Z,15.50
2023-05-06T23:59:19.532Z,15.50
